Time;durP1;ratioP1;P1;durP2;ratioP2;P2;SDS_P1;SDS_P2;PMS_P1;PMS_P2;Temp;Humidity;BMP_temperature;BMP_pressure;BME280_temperature;BME280_humidity;BME280_pressure;Samples;Min_cycle;Max_cycle;Signal;HPM_P1;HPM_P2
2022/06/08 00:02:21;;;;;;;10.53;5.40;;;18.80;62.90;;;;;;5031447;28;20435;-70
2022/06/08 00:04:46;;;;;;;14.73;5.10;;;18.80;63.10;;;;;;5031976;28;20452;-70
2022/06/08 00:07:13;;;;;;;8.67;4.50;;;18.70;64.10;;;;;;5029250;28;20445;-70
2022/06/08 00:09:38;;;;;;;6.90;4.33;;;18.60;65.10;;;;;;5030372;28;20185;-69
2022/06/08 00:12:05;;;;;;;20.33;5.33;;;18.70;64.30;;;;;;5030640;28;20453;-70
2022/06/08 00:14:31;;;;;;;8.00;4.70;;;18.80;63.00;;;;;;5031425;28;20200;-70
2022/06/08 00:16:57;;;;;;;13.57;5.10;;;18.90;63.70;;;;;;5031780;28;20481;-70
2022/06/08 00:19:23;;;;;;;13.50;5.00;;;18.80;63.80;;;;;;5029647;28;20180;-70
2022/06/08 00:21:48;;;;;;;6.47;4.87;;;18.80;63.60;;;;;;5031234;28;20525;-70
2022/06/08 00:24:14;;;;;;;20.17;4.97;;;18.70;63.00;;;;;;5031377;28;20208;-70
2022/06/08 00:26:40;;;;;;;9.07;5.00;;;18.80;64.30;;;;;;5030823;28;20647;-70
2022/06/08 00:29:06;;;;;;;10.00;4.60;;;18.70;64.50;;;;;;5028525;28;20543;-70
2022/06/08 00:31:31;;;;;;;7.93;5.03;;;18.70;64.90;;;;;;5031155;28;20706;-70
2022/06/08 00:33:57;;;;;;;10.70;4.87;;;18.80;62.90;;;;;;5031412;28;20175;-70
2022/06/08 00:36:23;;;;;;;9.33;5.10;;;18.80;62.90;;;;;;5029287;28;20201;-69
2022/06/08 00:38:49;;;;;;;8.50;5.33;;;18.80;63.40;;;;;;5030451;28;20472;-69
2022/06/08 00:41:24;;;;;;;8.03;5.60;;;18.80;63.90;;;;;;5030783;28;20236;-69
2022/06/08 00:43:51;;;;;;;14.57;5.50;;;18.90;64.10;;;;;;5031247;28;20625;-69
2022/06/08 00:46:16;;;;;;;8.30;5.20;;;18.80;62.70;;;;;;5028548;28;20931;-69
2022/06/08 00:48:52;;;;;;;9.53;5.30;;;18.90;63.00;;;;;;5016408;28;20434;-69
2022/06/08 00:51:18;;;;;;;8.73;5.10;;;18.90;62.90;;;;;;5013210;28;20202;-69
2022/06/08 00:53:56;;;;;;;15.20;5.27;;;18.80;63.60;;;;;;5030974;28;20766;-69
2022/06/08 00:56:27;;;;;;;10.23;5.30;;;18.70;64.10;;;;;;5029675;28;20180;-69
2022/06/08 00:58:53;;;;;;;26.97;4.70;;;18.70;64.20;;;;;;5028915;28;20491;-69
2022/06/08 01:01:19;;;;;;;9.57;5.10;;;18.70;64.90;;;;;;5030937;28;20454;-69
2022/06/08 01:03:45;;;;;;;7.60;4.80;;;18.70;64.10;;;;;;5030034;28;20462;-69
2022/06/08 01:06:16;;;;;;;10.33;5.50;;;18.70;64.60;;;;;;5029337;28;20210;-69
2022/06/08 01:08:48;;;;;;;11.77;4.60;;;18.70;65.00;;;;;;5033194;28;20171;-69
2022/06/08 01:11:38;;;;;;;8.77;4.80;;;18.70;64.50;;;;;;5034646;28;20468;-69
2022/06/08 01:14:09;;;;;;;6.93;4.70;;;18.70;64.80;;;;;;5017010;28;20482;-69
2022/06/08 01:16:35;;;;;;;8.37;4.43;;;18.60;64.30;;;;;;5033371;28;20513;-69
2022/06/08 01:19:02;;;;;;;8.37;4.87;;;18.60;64.00;;;;;;5032983;28;20875;-69
2022/06/08 01:21:27;;;;;;;9.20;4.77;;;18.60;64.90;;;;;;5034352;28;20201;-69
2022/06/08 01:24:12;;;;;;;9.87;5.00;;;18.60;64.30;;;;;;5034517;28;20870;-69
2022/06/08 01:26:43;;;;;;;16.40;4.53;;;18.60;62.40;;;;;;5015533;28;20189;-69
2022/06/08 01:29:20;;;;;;;6.50;4.53;;;18.60;62.60;;;;;;5017058;28;20582;-69
2022/06/08 01:31:56;;;;;;;6.70;4.40;;;18.50;63.60;;;;;;5029433;28;20458;-69
2022/06/08 01:34:53;;;;;;;9.37;4.80;;;18.50;62.60;;;;;;5034687;28;20410;-69
2022/06/08 01:37:35;;;;;;;9.93;5.20;;;18.50;63.20;;;;;;5023050;28;20438;-69
2022/06/08 01:40:35;;;;;;;10.70;4.60;;;18.50;63.30;;;;;;5030055;28;21072;-69
2022/06/08 01:43:20;;;;;;;10.07;4.83;;;18.50;62.90;;;;;;5012051;28;20464;-69
2022/06/08 01:46:12;;;;;;;12.93;4.97;;;18.30;62.60;;;;;;5034232;28;20484;-69
2022/06/08 01:49:03;;;;;;;12.43;5.00;;;18.30;62.30;;;;;;5031022;28;20470;-69
2022/06/08 01:51:43;;;;;;;10.13;4.60;;;18.20;62.70;;;;;;5028829;28;20447;-69
2022/06/08 01:54:13;;;;;;;11.97;4.90;;;18.10;62.30;;;;;;5032304;28;20423;-69
2022/06/08 01:56:47;;;;;;;8.53;4.40;;;18.20;63.20;;;;;;5033539;28;20415;-69
2022/06/08 01:59:37;;;;;;;9.83;5.00;;;18.20;63.30;;;;;;5030126;28;20430;-68
2022/06/08 02:02:18;;;;;;;14.53;5.30;;;18.20;62.00;;;;;;5032284;28;20440;-69
2022/06/08 02:04:50;;;;;;;11.07;5.17;;;18.20;62.60;;;;;;5034213;28;20393;-69
2022/06/08 02:07:21;;;;;;;10.17;5.30;;;18.20;63.10;;;;;;5033611;28;20475;-69
2022/06/08 02:10:26;;;;;;;20.53;5.20;;;18.20;61.60;;;;;;5029515;28;20431;-69
2022/06/08 02:13:22;;;;;;;10.60;5.00;;;18.20;59.90;;;;;;5032189;28;20498;-69
2022/06/08 02:15:52;;;;;;;9.70;5.10;;;18.10;61.60;;;;;;5012955;28;20448;-69
2022/06/08 02:18:30;;;;;;;11.07;5.73;;;18.00;62.00;;;;;;5033568;28;20450;-69
2022/06/08 02:21:10;;;;;;;12.80;6.60;;;18.00;61.60;;;;;;5032659;28;20431;-69
2022/06/08 02:23:48;;;;;;;9.70;4.90;;;17.90;60.60;;;;;;5018559;28;20454;-69
2022/06/08 02:26:39;;;;;;;12.47;5.33;;;17.90;59.10;;;;;;5033734;28;20392;-68
2022/06/08 02:29:15;;;;;;;6.87;4.70;;;17.90;57.90;;;;;;5032475;28;20496;-69
2022/06/08 02:31:47;;;;;;;20.43;5.80;;;17.80;59.30;;;;;;5032732;28;20446;-69
2022/06/08 02:34:31;;;;;;;10.03;5.50;;;17.80;59.40;;;;;;5031887;28;20424;-69
2022/06/08 02:37:18;;;;;;;12.93;5.27;;;17.70;60.10;;;;;;5032551;28;20526;-69
2022/06/08 02:40:02;;;;;;;10.27;5.60;;;17.70;61.60;;;;;;5033402;28;20407;-69
2022/06/08 02:42:35;;;;;;;9.00;4.70;;;17.60;61.10;;;;;;5025107;28;20863;-69
2022/06/08 02:45:07;;;;;;;16.90;5.37;;;17.60;60.10;;;;;;5031419;28;20427;-69
2022/06/08 02:47:36;;;;;;;11.93;5.67;;;17.50;61.00;;;;;;5014642;28;20476;-69
2022/06/08 02:50:03;;;;;;;12.93;5.37;;;17.40;61.20;;;;;;5030204;28;20841;-69
2022/06/08 02:52:30;;;;;;;6.70;4.60;;;17.50;61.20;;;;;;5022223;28;20525;-69
2022/06/08 02:54:56;;;;;;;10.57;5.00;;;17.50;60.10;;;;;;5013777;28;20416;-69
2022/06/08 02:57:44;;;;;;;6.73;4.57;;;17.50;59.90;;;;;;5013319;28;20454;-69
2022/06/08 03:00:15;;;;;;;12.30;5.57;;;17.40;60.10;;;;;;5029826;28;20419;-69
2022/06/08 03:02:44;;;;;;;14.90;5.90;;;17.40;60.00;;;;;;5020349;28;20490;-69
2022/06/08 03:05:22;;;;;;;9.27;5.23;;;17.50;59.90;;;;;;5013125;28;20404;-69
2022/06/08 03:07:54;;;;;;;13.73;5.10;;;17.60;59.60;;;;;;5013114;28;20392;-69
2022/06/08 03:10:21;;;;;;;10.47;5.10;;;17.50;58.60;;;;;;5026808;28;20434;-69
2022/06/08 03:12:56;;;;;;;7.60;4.83;;;17.40;59.20;;;;;;5031289;28;20463;-69
2022/06/08 03:15:24;;;;;;;9.60;5.17;;;17.40;60.20;;;;;;5024484;28;20411;-69
2022/06/08 03:17:50;;;;;;;7.10;5.23;;;17.20;60.30;;;;;;5032830;28;20417;-69
2022/06/08 03:20:20;;;;;;;10.83;5.40;;;17.00;60.90;;;;;;5030482;28;20435;-69
2022/06/08 03:22:46;;;;;;;7.90;4.30;;;17.00;62.30;;;;;;5031291;28;20524;-70
2022/06/08 03:25:12;;;;;;;21.50;5.17;;;17.00;62.00;;;;;;5030099;28;20439;-69
2022/06/08 03:27:38;;;;;;;11.37;5.83;;;17.10;60.80;;;;;;5030587;28;20434;-69
2022/06/08 03:30:05;;;;;;;13.70;4.93;;;17.10;62.20;;;;;;5029383;28;20510;-68
2022/06/08 03:32:31;;;;;;;8.10;5.17;;;17.00;60.70;;;;;;5031710;28;20196;-69
2022/06/08 03:34:57;;;;;;;8.77;5.10;;;17.00;61.10;;;;;;5030467;28;20445;-69
2022/06/08 03:37:23;;;;;;;13.87;5.40;;;16.80;61.10;;;;;;5032628;28;20173;-69
2022/06/08 03:39:48;;;;;;;20.83;5.60;;;16.80;63.90;;;;;;5030987;28;20176;-69
2022/06/08 03:42:14;;;;;;;8.17;5.10;;;17.10;62.30;;;;;;5031057;28;20431;-69
2022/06/08 03:44:41;;;;;;;9.93;5.57;;;17.40;57.60;;;;;;5030451;28;20289;-69
2022/06/08 03:47:15;;;;;;;9.30;5.10;;;17.30;60.10;;;;;;5032264;28;20943;-69
2022/06/08 03:49:41;;;;;;;11.33;5.57;;;17.40;60.10;;;;;;5030638;28;20242;-69
2022/06/08 03:52:13;;;;;;;9.73;5.20;;;17.40;60.60;;;;;;5031922;28;20440;-69
2022/06/08 03:54:42;;;;;;;6.97;4.37;;;17.40;60.30;;;;;;5031206;28;20427;-69
2022/06/08 03:57:10;;;;;;;10.03;4.50;;;17.50;59.10;;;;;;5029695;28;20488;-69
2022/06/08 03:59:40;;;;;;;9.77;5.00;;;17.30;60.80;;;;;;5032148;28;20415;-69
2022/06/08 04:02:06;;;;;;;10.20;4.67;;;17.30;60.80;;;;;;5030019;28;21000;-69
2022/06/08 04:04:33;;;;;;;11.80;4.90;;;17.40;60.30;;;;;;5031650;28;20532;-68
2022/06/08 04:06:59;;;;;;;10.20;4.63;;;17.40;60.60;;;;;;5030537;28;20422;-69
2022/06/08 04:09:24;;;;;;;7.33;4.40;;;17.50;60.60;;;;;;5027968;28;20427;-68
2022/06/08 04:11:50;;;;;;;9.50;4.77;;;17.40;59.80;;;;;;5029025;28;20467;-69
2022/06/08 04:14:16;;;;;;;8.03;4.80;;;17.40;60.50;;;;;;5031555;28;20189;-69
2022/06/08 04:16:41;;;;;;;18.73;5.23;;;17.50;59.40;;;;;;5031763;28;20630;-69
2022/06/08 04:19:07;;;;;;;9.17;5.03;;;17.50;60.50;;;;;;5031091;28;20216;-69
2022/06/08 04:21:33;;;;;;;8.23;4.97;;;17.70;59.40;;;;;;5020793;28;20299;-69
2022/06/08 04:24:00;;;;;;;12.73;5.00;;;17.70;58.30;;;;;;5031179;28;20262;-68
2022/06/08 04:26:26;;;;;;;6.60;4.50;;;17.80;60.10;;;;;;5031748;28;20169;-70
2022/06/08 04:28:53;;;;;;;10.57;5.10;;;17.90;58.80;;;;;;5030172;28;20454;-70
2022/06/08 04:31:19;;;;;;;8.97;5.10;;;17.80;60.10;;;;;;5026087;28;20448;-70
2022/06/08 04:33:45;;;;;;;18.80;4.87;;;17.80;61.10;;;;;;5026368;28;20459;-70
2022/06/08 04:36:11;;;;;;;10.23;4.63;;;17.80;61.30;;;;;;5031368;28;20415;-71
2022/06/08 04:38:37;;;;;;;6.57;4.90;;;17.90;60.60;;;;;;5031436;28;20419;-70
2022/06/08 04:41:04;;;;;;;9.40;5.90;;;17.80;60.50;;;;;;5029685;28;20485;-70
2022/06/08 04:43:30;;;;;;;5.67;4.60;;;17.90;60.30;;;;;;5020674;28;20208;-70
2022/06/08 04:45:55;;;;;;;8.77;4.57;;;17.80;59.60;;;;;;5031071;28;20506;-70
2022/06/08 04:48:21;;;;;;;12.37;5.30;;;17.80;60.90;;;;;;5032079;28;20506;-70
2022/06/08 04:50:48;;;;;;;7.87;5.03;;;18.00;60.00;;;;;;5028940;28;20180;-70
2022/06/08 04:53:14;;;;;;;9.80;4.90;;;17.90;60.50;;;;;;5025812;28;20554;-70
2022/06/08 04:55:40;;;;;;;8.97;4.70;;;17.90;60.30;;;;;;5031320;28;20672;-70
2022/06/08 04:58:06;;;;;;;14.43;4.70;;;18.00;60.40;;;;;;5031486;28;20895;-70
2022/06/08 05:00:32;;;;;;;12.10;4.83;;;17.90;58.60;;;;;;5031163;28;20234;-70
2022/06/08 05:02:58;;;;;;;13.63;5.13;;;17.90;59.40;;;;;;5030481;28;20215;-70
2022/06/08 05:05:36;;;;;;;8.17;4.30;;;18.10;60.30;;;;;;5015281;28;20440;-70
2022/06/08 05:08:04;;;;;;;11.03;4.70;;;18.10;59.40;;;;;;5025268;28;20456;-70
2022/06/08 05:10:31;;;;;;;14.67;4.50;;;17.80;55.90;;;;;;5031040;28;20506;-70
2022/06/08 05:12:58;;;;;;;13.40;4.67;;;16.50;66.10;;;;;;5029898;28;20463;-69
2022/06/08 05:15:28;;;;;;;12.20;5.33;;;15.90;72.10;;;;;;5021806;28;20448;-70
2022/06/08 05:17:54;;;;;;;8.37;4.83;;;16.50;71.30;;;;;;5011624;28;20458;-70
2022/06/08 05:20:21;;;;;;;13.90;5.40;;;16.50;67.00;;;;;;5011288;28;21265;-70
2022/06/08 05:22:47;;;;;;;9.77;5.70;;;16.90;66.50;;;;;;5015951;28;20477;-70
2022/06/08 05:25:27;;;;;;;9.90;4.60;;;17.50;61.30;;;;;;5028573;28;20426;-70
2022/06/08 05:27:53;;;;;;;10.20;4.70;;;17.50;59.90;;;;;;5031347;28;20887;-70
2022/06/08 05:30:19;;;;;;;9.83;4.60;;;17.00;61.90;;;;;;5031020;28;20493;-70
2022/06/08 05:32:45;;;;;;;9.00;4.90;;;17.00;62.80;;;;;;5030540;28;20212;-70
2022/06/08 05:35:11;;;;;;;17.00;4.60;;;17.10;64.70;;;;;;5030307;28;20431;-70
2022/06/08 05:37:37;;;;;;;8.60;5.30;;;17.80;62.10;;;;;;5017397;28;20442;-70
2022/06/08 05:40:05;;;;;;;8.47;4.90;;;18.30;56.30;;;;;;5021792;28;20813;-70
2022/06/08 05:42:31;;;;;;;10.27;5.13;;;18.50;53.90;;;;;;5030723;28;20438;-70
2022/06/08 05:44:57;;;;;;;7.70;4.83;;;18.20;54.80;;;;;;5030982;28;20822;-70
2022/06/08 05:47:23;;;;;;;8.23;5.50;;;17.40;60.20;;;;;;5011499;28;20430;-70
2022/06/08 05:49:49;;;;;;;7.90;5.03;;;17.50;63.70;;;;;;5027287;28;20496;-70
2022/06/08 05:52:14;;;;;;;11.67;4.87;;;17.90;61.60;;;;;;5030820;28;20437;-70
2022/06/08 05:54:40;;;;;;;8.70;5.30;;;18.10;59.60;;;;;;5034231;28;20217;-70
2022/06/08 05:57:06;;;;;;;10.80;5.10;;;17.50;62.40;;;;;;5032946;28;20192;-70
2022/06/08 05:59:31;;;;;;;14.50;5.60;;;16.90;66.60;;;;;;5026197;28;20282;-70
2022/06/08 06:01:57;;;;;;;15.80;5.60;;;16.90;69.20;;;;;;5022446;28;20209;-70
2022/06/08 06:04:23;;;;;;;8.77;5.50;;;17.40;65.70;;;;;;5033912;28;20699;-70
2022/06/08 06:06:48;;;;;;;13.90;5.60;;;16.90;68.60;;;;;;5034087;28;20173;-70
2022/06/08 06:09:17;;;;;;;12.30;6.70;;;17.00;71.40;;;;;;5034167;28;20412;-70
2022/06/08 06:11:43;;;;;;;20.40;6.60;;;16.90;68.20;;;;;;5027402;28;20200;-70
2022/06/08 06:14:10;;;;;;;11.90;6.60;;;16.80;74.10;;;;;;5032058;28;20430;-70
2022/06/08 06:16:36;;;;;;;10.80;5.60;;;17.60;66.70;;;;;;5028097;28;20428;-70
2022/06/08 06:19:02;;;;;;;10.10;5.90;;;18.00;63.90;;;;;;5014317;28;20418;-69
2022/06/08 06:21:27;;;;;;;9.27;6.10;;;17.80;61.80;;;;;;5019196;28;20668;-70
2022/06/08 06:23:54;;;;;;;16.73;6.27;;;18.00;63.30;;;;;;5025770;28;20469;-70
2022/06/08 06:26:20;;;;;;;20.60;5.60;;;18.60;58.60;;;;;;5025356;28;20196;-69
2022/06/08 06:28:47;;;;;;;9.00;5.47;;;18.90;55.60;;;;;;5033362;28;20454;-69
2022/06/08 06:31:24;;;;;;;12.20;6.10;;;18.90;54.30;;;;;;5032342;28;20833;-70
2022/06/08 06:33:50;;;;;;;11.73;5.30;;;18.20;55.90;;;;;;5031950;28;20482;-70
2022/06/08 06:36:16;;;;;;;7.87;5.70;;;18.50;55.60;;;;;;5033083;28;20541;-70
2022/06/08 06:38:42;;;;;;;10.33;5.20;;;18.50;53.90;;;;;;5033682;28;20449;-70
2022/06/08 06:41:08;;;;;;;11.90;5.90;;;18.50;56.50;;;;;;5031996;28;20652;-70
2022/06/08 06:43:35;;;;;;;12.33;5.40;;;18.80;53.30;;;;;;5023810;28;20467;-70
2022/06/08 06:46:02;;;;;;;16.60;7.73;;;18.90;54.90;;;;;;5031738;28;20447;-70
2022/06/08 06:48:28;;;;;;;13.23;6.60;;;18.70;55.60;;;;;;5032202;28;20954;-70
2022/06/08 06:50:54;;;;;;;12.80;5.97;;;18.10;59.20;;;;;;5033258;28;20411;-69
2022/06/08 06:53:19;;;;;;;14.60;6.50;;;18.00;60.00;;;;;;5027941;28;20958;-70
2022/06/08 06:55:45;;;;;;;10.90;6.10;;;18.60;61.10;;;;;;5032994;28;20197;-70
2022/06/08 06:58:11;;;;;;;11.73;6.40;;;19.00;57.40;;;;;;5031555;28;20212;-70
2022/06/08 07:00:36;;;;;;;16.70;6.10;;;19.30;55.40;;;;;;5033374;28;20236;-70
2022/06/08 07:03:02;;;;;;;25.37;6.13;;;19.50;53.10;;;;;;5008139;28;20223;-70
2022/06/08 07:05:33;;;;;;;13.03;5.57;;;19.70;51.50;;;;;;5031605;28;20173;-70
2022/06/08 07:07:59;;;;;;;9.83;5.50;;;19.70;51.80;;;;;;5033181;28;20178;-69
2022/06/08 07:10:25;;;;;;;10.80;5.57;;;19.50;52.90;;;;;;5033163;28;20420;-69
2022/06/08 07:12:51;;;;;;;18.90;5.90;;;19.60;54.20;;;;;;5032143;28;20251;-70
2022/06/08 07:15:20;;;;;;;13.57;6.00;;;19.80;53.70;;;;;;5031345;28;20456;-70
2022/06/08 07:17:46;;;;;;;8.77;4.90;;;19.90;56.40;;;;;;5014495;28;20187;-70
2022/06/08 07:20:12;;;;;;;9.93;5.00;;;20.00;51.60;;;;;;5029103;28;20928;-70
2022/06/08 07:22:39;;;;;;;18.67;5.17;;;20.10;52.40;;;;;;5032278;28;20211;-75
2022/06/08 07:25:06;;;;;;;8.83;4.70;;;20.00;51.00;;;;;;5027847;28;20450;-74
2022/06/08 07:27:32;;;;;;;18.60;5.27;;;20.20;48.20;;;;;;5032741;28;20425;-73
2022/06/08 07:29:58;;;;;;;12.90;4.60;;;20.40;49.20;;;;;;5032782;28;20786;-73
2022/06/08 07:32:23;;;;;;;14.17;4.27;;;20.50;48.00;;;;;;5030749;28;20749;-73
2022/06/08 07:34:49;;;;;;;9.37;4.40;;;20.70;48.60;;;;;;5030658;28;20180;-75
2022/06/08 07:37:15;;;;;;;7.10;4.60;;;20.70;50.60;;;;;;5031386;28;20321;-73
2022/06/08 07:39:40;;;;;;;10.17;4.63;;;20.80;50.80;;;;;;5032565;28;20640;-73
2022/06/08 07:42:07;;;;;;;8.93;4.33;;;20.10;50.00;;;;;;5029009;28;20208;-73
2022/06/08 07:44:32;;;;;;;14.00;4.50;;;19.80;50.20;;;;;;5029663;28;20196;-73
2022/06/08 07:46:58;;;;;;;10.63;5.00;;;19.20;55.00;;;;;;5025331;28;21017;-74
2022/06/08 07:49:37;;;;;;;9.50;5.40;;;19.50;53.60;;;;;;5029399;28;20184;-73
2022/06/08 07:52:23;;;;;;;7.67;4.80;;;19.80;52.10;;;;;;5031891;28;20192;-71
2022/06/08 07:54:49;;;;;;;12.10;5.40;;;19.90;53.30;;;;;;5023994;28;20784;-72
2022/06/08 07:57:22;;;;;;;18.37;7.00;;;19.70;52.10;;;;;;5026369;28;20426;-72
2022/06/08 07:59:48;;;;;;;14.83;8.43;;;19.00;54.70;;;;;;5030658;28;20427;-71
2022/06/08 08:02:14;;;;;;;16.00;5.30;;;18.80;56.80;;;;;;5026412;28;20462;-71
2022/06/08 08:04:40;;;;;;;12.20;5.50;;;19.70;53.10;;;;;;5029910;28;20602;-73
2022/06/08 08:07:06;;;;;;;11.60;4.40;;;20.40;49.60;;;;;;5030823;28;20486;-72
2022/06/08 08:09:34;;;;;;;6.00;3.70;;;20.30;47.00;;;;;;5023262;28;20430;-72
2022/06/08 08:12:00;;;;;;;6.43;3.87;;;20.30;46.10;;;;;;5030806;28;20252;-73
2022/06/08 08:14:27;;;;;;;11.93;4.33;;;20.60;45.40;;;;;;5026248;28;20442;-73
2022/06/08 08:16:53;;;;;;;15.67;4.93;;;21.10;49.00;;;;;;5025900;28;20470;-70
2022/06/08 08:19:21;;;;;;;15.60;5.00;;;21.10;45.20;;;;;;5027300;28;20436;-70
2022/06/08 08:21:48;;;;;;;9.00;3.80;;;20.60;45.60;;;;;;5020100;28;20561;-70
2022/06/08 08:24:14;;;;;;;11.33;3.80;;;20.80;46.50;;;;;;5022239;28;20538;-70
2022/06/08 08:26:44;;;;;;;10.77;3.50;;;21.30;44.50;;;;;;5027771;28;21013;-72
2022/06/08 08:29:09;;;;;;;8.37;4.03;;;20.90;41.70;;;;;;5028668;28;20960;-71
2022/06/08 08:31:37;;;;;;;6.93;2.70;;;20.40;42.40;;;;;;5028814;28;20480;-71
2022/06/08 08:34:04;;;;;;;6.80;3.23;;;20.20;41.80;;;;;;5029942;28;20300;-71
2022/06/08 08:36:30;;;;;;;14.87;3.30;;;20.30;43.00;;;;;;5020839;28;20438;-71
2022/06/08 08:38:57;;;;;;;9.00;3.40;;;20.80;39.50;;;;;;5027169;28;20434;-71
2022/06/08 08:44:29;;;;;;;10.23;3.40;;;21.60;35.60;;;;;;5025472;28;20492;-72
2022/06/08 08:47:34;;;;;;;6.30;3.03;;;21.50;38.40;;;;;;5030967;28;20456;-72
2022/06/08 08:50:14;;;;;;;12.73;3.17;;;21.70;36.50;;;;;;5019446;28;20436;-71
2022/06/08 08:52:50;;;;;;;6.33;2.80;;;21.40;34.90;;;;;;5011525;28;20426;-72
2022/06/08 08:55:30;;;;;;;6.50;3.00;;;21.80;40.30;;;;;;5013227;28;20938;-72
2022/06/08 08:58:11;;;;;;;8.37;3.70;;;22.40;36.40;;;;;;5025663;28;21779;-71
2022/06/08 09:00:39;;;;;;;8.67;3.30;;;22.00;34.20;;;;;;5011648;28;20400;-71
2022/06/08 09:03:35;;;;;;;5.67;2.87;;;21.40;34.60;;;;;;5020565;28;20509;-72
2022/06/08 09:06:14;;;;;;;7.07;2.93;;;21.30;36.20;;;;;;5031039;28;20566;-71
2022/06/08 09:08:46;;;;;;;6.03;3.20;;;21.50;34.70;;;;;;5029340;28;20769;-71
2022/06/08 09:11:14;;;;;;;8.43;3.70;;;21.40;36.30;;;;;;5021129;28;20467;-71
2022/06/08 09:13:48;;;;;;;9.23;3.30;;;20.90;38.70;;;;;;5030344;28;20439;-71
2022/06/08 09:16:28;;;;;;;6.80;3.03;;;21.20;37.20;;;;;;5029077;28;20422;-71
2022/06/08 09:18:54;;;;;;;11.50;3.40;;;21.60;37.20;;;;;;5027421;28;20496;-72
2022/06/08 09:21:32;;;;;;;8.60;3.20;;;22.60;38.90;;;;;;5030194;28;20524;-71
2022/06/08 09:24:09;;;;;;;6.37;2.90;;;22.30;33.10;;;;;;5030548;28;20505;-72
2022/06/08 09:26:39;;;;;;;8.10;3.27;;;22.30;35.80;;;;;;5028765;28;20909;-72
2022/06/08 09:29:11;;;;;;;5.53;2.70;;;22.30;35.90;;;;;;5030575;28;20420;-71
2022/06/08 09:31:38;;;;;;;9.73;4.00;;;22.90;33.80;;;;;;5034733;28;20424;-72
2022/06/08 09:34:24;;;;;;;5.67;3.20;;;23.40;33.30;;;;;;5034367;28;20475;-72
2022/06/08 09:37:15;;;;;;;9.80;3.10;;;23.10;29.00;;;;;;5035095;28;20406;-72
2022/06/08 09:39:44;;;;;;;9.50;3.23;;;23.20;30.50;;;;;;5018322;28;20432;-71
2022/06/08 09:42:28;;;;;;;7.03;3.00;;;23.50;32.00;;;;;;5014661;28;20986;-71
2022/06/08 09:45:03;;;;;;;9.53;3.43;;;23.80;28.70;;;;;;5014725;28;20458;-72
2022/06/08 09:54:19;;;;;;;7.57;2.87;;;22.30;29.60;;;;;;4946822;29;20571;-71
2022/06/08 09:57:08;;;;;;;7.13;3.03;;;22.00;33.10;;;;;;4937375;29;20558;-71
2022/06/08 10:00:00;;;;;;;9.07;2.97;;;22.00;32.40;;;;;;4909575;29;20506;-72
2022/06/08 10:02:47;;;;;;;6.63;2.73;;;23.20;32.70;;;;;;4950289;29;20511;-72
2022/06/08 10:05:27;;;;;;;6.50;2.50;;;24.30;27.90;;;;;;4942532;29;20519;-72
2022/06/08 10:08:38;;;;;;;13.90;2.70;;;23.70;28.60;;;;;;4935028;29;21006;-72
2022/06/08 10:11:34;;;;;;;4.13;2.37;;;24.50;29.20;;;;;;4935696;29;20423;-72
2022/06/08 10:13:57;;;;;;;10.63;2.77;;;24.90;28.90;;;;;;4942584;29;20423;-72
2022/06/08 10:16:27;;;;;;;5.40;2.90;;;25.10;25.40;;;;;;4950536;29;20423;-72
2022/06/08 10:18:57;;;;;;;4.60;2.70;;;25.10;26.50;;;;;;4950641;29;20854;-72
2022/06/08 10:21:31;;;;;;;11.53;2.80;;;24.50;27.70;;;;;;4950175;29;20470;-72
2022/06/08 10:24:01;;;;;;;7.60;2.60;;;24.70;27.60;;;;;;4949072;29;20469;-72
2022/06/08 10:26:39;;;;;;;4.20;2.43;;;24.80;26.60;;;;;;4948402;29;20443;-72
2022/06/08 10:29:28;;;;;;;8.70;2.97;;;24.60;27.90;;;;;;4952147;28;20438;-72
2022/06/08 10:32:02;;;;;;;7.47;2.33;;;24.90;30.80;;;;;;5023186;28;20446;-72
2022/06/08 10:34:33;;;;;;;5.50;2.50;;;24.60;23.00;;;;;;5026990;28;20575;-71
2022/06/08 10:37:15;;;;;;;6.70;2.67;;;24.40;23.00;;;;;;5032855;28;20421;-72
2022/06/08 10:39:43;;;;;;;4.03;2.20;;;24.70;22.10;;;;;;5031448;28;20851;-72
2022/06/08 10:45:00;;;;;;;5.10;2.27;;;24.90;23.10;;;;;;5031420;28;20505;-72
2022/06/08 10:47:31;;;;;;;3.17;2.20;;;25.20;23.40;;;;;;5032136;28;20939;-72
2022/06/08 10:50:00;;;;;;;6.37;2.63;;;24.90;21.60;;;;;;5021738;28;20422;-72
2022/06/08 10:52:27;;;;;;;5.13;2.57;;;25.50;23.90;;;;;;5040909;28;20452;-72
2022/06/08 10:55:14;;;;;;;5.10;2.23;;;25.10;21.50;;;;;;5048089;28;20457;-72
2022/06/08 10:57:43;;;;;;;5.07;2.40;;;25.30;21.90;;;;;;5025094;28;20783;-72
2022/06/08 11:00:26;;;;;;;6.70;2.50;;;25.70;20.90;;;;;;5016325;28;20423;-72
2022/06/08 11:02:58;;;;;;;8.50;2.30;;;25.20;22.70;;;;;;5024751;28;20458;-72
2022/06/08 11:05:29;;;;;;;4.17;2.10;;;25.40;22.50;;;;;;5032677;28;20415;-72
2022/06/08 11:08:01;;;;;;;3.70;2.20;;;25.00;22.20;;;;;;5014432;28;20518;-72
2022/06/08 11:10:54;;;;;;;8.57;2.20;;;25.20;19.90;;;;;;5020515;28;20436;-72
2022/06/08 11:13:22;;;;;;;5.20;2.20;;;25.70;23.30;;;;;;4999079;28;20967;-72
2022/06/08 11:16:08;;;;;;;4.30;2.40;;;26.40;22.90;;;;;;5030085;28;20957;-72
2022/06/08 11:18:42;;;;;;;6.17;2.20;;;26.40;21.30;;;;;;5028147;28;20431;-72
2022/06/08 11:21:14;;;;;;;4.47;1.90;;;27.00;23.70;;;;;;5012993;28;20472;-72
2022/06/08 11:24:02;;;;;;;4.30;2.20;;;27.20;20.70;;;;;;5013997;28;20578;-71
2022/06/08 11:26:37;;;;;;;5.03;2.20;;;26.60;18.50;;;;;;5022983;28;20554;-72
2022/06/08 11:29:18;;;;;;;5.03;2.10;;;25.90;20.10;;;;;;5012778;28;20773;-72
2022/06/08 11:31:43;;;;;;;5.27;2.17;;;26.00;19.60;;;;;;5012497;28;20462;-71
2022/06/08 11:34:21;;;;;;;12.03;2.70;;;25.20;20.30;;;;;;5017305;28;20486;-72
2022/06/08 11:36:55;;;;;;;2.90;2.20;;;25.20;21.20;;;;;;5017864;28;20181;-72
2022/06/08 11:39:36;;;;;;;4.00;2.10;;;26.80;18.70;;;;;;5031517;28;20435;-72
2022/06/08 11:42:35;;;;;;;5.10;2.40;;;27.10;18.30;;;;;;5023528;28;20450;-72
2022/06/08 11:45:18;;;;;;;3.77;2.03;;;26.60;18.80;;;;;;5012632;28;20432;-72
2022/06/08 11:47:51;;;;;;;6.43;2.23;;;25.30;20.10;;;;;;5024230;28;20522;-71
2022/06/08 11:50:26;;;;;;;7.40;2.37;;;24.40;19.90;;;;;;5033308;28;20481;-72
2022/06/08 11:53:03;;;;;;;6.13;2.43;;;23.80;21.70;;;;;;5029555;28;20983;-72
2022/06/08 11:55:34;;;;;;;3.70;1.97;;;24.10;21.30;;;;;;5018483;28;20535;-71
2022/06/08 11:58:05;;;;;;;3.37;2.10;;;24.30;20.00;;;;;;5012958;28;20420;-72
2022/06/08 12:00:58;;;;;;;6.33;2.30;;;24.80;20.10;;;;;;5018638;28;20427;-72
2022/06/08 12:03:49;;;;;;;4.63;2.23;;;26.40;23.00;;;;;;5012853;28;20492;-72
2022/06/08 12:06:14;;;;;;;3.93;2.27;;;26.90;18.50;;;;;;5025380;28;20428;-72
2022/06/08 12:08:42;;;;;;;5.60;2.37;;;27.60;19.50;;;;;;5017005;28;20934;-71
2022/06/08 12:11:11;;;;;;;4.33;2.00;;;26.70;18.10;;;;;;5014373;28;20181;-71
2022/06/08 12:13:37;;;;;;;4.53;2.03;;;26.10;18.60;;;;;;5018179;28;20423;-72
2022/06/08 12:16:24;;;;;;;7.13;2.40;;;26.90;18.20;;;;;;5023709;28;21034;-71
2022/06/08 12:18:56;;;;;;;4.83;2.30;;;26.50;17.90;;;;;;5023821;28;20419;-72
2022/06/08 12:21:33;;;;;;;5.90;2.47;;;27.70;20.20;;;;;;5023909;28;20514;-72
2022/06/08 12:24:02;;;;;;;3.97;2.00;;;27.80;16.30;;;;;;5022491;28;20491;-72
2022/06/08 12:26:39;;;;;;;5.03;2.20;;;27.80;17.80;;;;;;5022803;28;20419;-72
2022/06/08 12:29:22;;;;;;;7.37;2.17;;;27.20;17.00;;;;;;5018602;28;20427;-72
2022/06/08 12:32:13;;;;;;;7.30;1.90;;;27.20;17.00;;;;;;5025530;28;20454;-72
2022/06/08 12:35:01;;;;;;;4.10;2.27;;;26.70;16.70;;;;;;5022199;28;20428;-72
2022/06/08 12:37:26;;;;;;;7.63;2.10;;;26.90;17.80;;;;;;5023968;28;20919;-72
2022/06/08 12:39:54;;;;;;;3.17;1.90;;;27.10;20.30;;;;;;5015211;28;20842;-72
2022/06/08 12:42:29;;;;;;;4.63;2.00;;;26.10;17.40;;;;;;5011401;28;20562;-71
2022/06/08 12:44:57;;;;;;;5.23;2.50;;;26.00;19.10;;;;;;5014150;28;20455;-72
2022/06/08 12:47:29;;;;;;;3.63;2.00;;;25.30;18.20;;;;;;5024070;28;20965;-72
2022/06/08 12:50:29;;;;;;;3.43;2.07;;;24.60;20.20;;;;;;5029640;28;20510;-72
2022/06/08 12:52:56;;;;;;;6.13;2.27;;;25.50;21.40;;;;;;4932209;29;20455;-72
2022/06/08 12:55:24;;;;;;;4.70;2.10;;;27.10;18.20;;;;;;4944373;29;20482;-73
2022/06/08 12:57:50;;;;;;;5.43;1.93;;;27.80;17.10;;;;;;4935528;29;20426;-72
2022/06/08 13:00:20;;;;;;;6.87;2.07;;;28.10;17.30;;;;;;4947341;29;20533;-72
2022/06/08 13:02:46;;;;;;;4.23;2.33;;;28.10;17.00;;;;;;4952718;28;20490;-72
2022/06/08 13:05:22;;;;;;;3.43;1.97;;;27.10;17.50;;;;;;4938894;29;20439;-71
2022/06/08 13:07:49;;;;;;;5.33;2.00;;;26.20;19.60;;;;;;4940116;29;20518;-72
2022/06/08 13:10:15;;;;;;;7.43;2.10;;;26.90;19.50;;;;;;4949318;29;20435;-72
2022/06/08 13:12:45;;;;;;;6.13;2.43;;;27.20;20.80;;;;;;4952881;29;20455;-72
2022/06/08 13:15:16;;;;;;;4.37;2.00;;;27.60;17.50;;;;;;4941870;29;20994;-72
2022/06/08 13:17:42;;;;;;;4.27;2.23;;;26.90;18.20;;;;;;4936076;29;20731;-72
2022/06/08 13:20:19;;;;;;;5.13;2.17;;;26.50;18.70;;;;;;4945500;29;20934;-72